Time;durP1;ratioP1;P1;durP2;ratioP2;P2;SDS_P1;SDS_P2;PMS_P1;PMS_P2;Temp;Humidity;BMP_temperature;BMP_pressure;BME280_temperature;BME280_humidity;BME280_pressure;Samples;Min_cycle;Max_cycle;Signal;HPM_P1;HPM_P2
2021/11/27 00:00:07;;;;;;;4.18;3.78;;;1.50;99.90;;;;;;5032195;28;20715;-73
2021/11/27 00:02:34;;;;;;;5.47;3.85;;;1.50;99.90;;;;;;5032401;28;20202;-73
2021/11/27 00:05:01;;;;;;;3.90;3.50;;;1.40;99.90;;;;;;5032622;28;20213;-73
2021/11/27 00:07:28;;;;;;;4.07;3.25;;;1.50;99.90;;;;;;5032719;28;20228;-73
2021/11/27 00:09:54;;;;;;;7.70;4.22;;;1.40;99.90;;;;;;5032196;28;20232;-73
2021/11/27 00:12:21;;;;;;;4.80;3.70;;;1.40;99.90;;;;;;5031539;28;20214;-73
2021/11/27 00:14:49;;;;;;;4.90;3.97;;;1.40;99.90;;;;;;5032460;28;20201;-73
2021/11/27 00:17:16;;;;;;;4.45;3.40;;;1.40;99.90;;;;;;5031370;28;20237;-73
2021/11/27 00:19:43;;;;;;;5.88;3.88;;;1.40;99.90;;;;;;5032364;28;20226;-73
2021/11/27 00:22:10;;;;;;;5.15;3.90;;;1.50;99.90;;;;;;5031291;28;20206;-73
2021/11/27 00:24:37;;;;;;;4.10;3.70;;;1.40;99.90;;;;;;5031830;28;20212;-73
2021/11/27 00:27:03;;;;;;;4.70;3.47;;;1.50;99.90;;;;;;5032072;28;20600;-73
2021/11/27 00:29:30;;;;;;;5.07;3.60;;;1.40;99.90;;;;;;5031803;28;20209;-73
2021/11/27 00:31:58;;;;;;;4.38;3.38;;;1.40;99.90;;;;;;5031072;28;20688;-73
2021/11/27 00:34:25;;;;;;;4.10;3.70;;;1.40;99.90;;;;;;5031573;28;20229;-73
2021/11/27 00:36:53;;;;;;;4.95;3.95;;;1.40;99.90;;;;;;5031661;28;20232;-73
2021/11/27 00:39:21;;;;;;;5.22;3.75;;;1.40;99.90;;;;;;5031233;28;20222;-73
2021/11/27 00:41:48;;;;;;;5.18;3.80;;;1.30;99.90;;;;;;5031437;28;20213;-73
2021/11/27 00:44:15;;;;;;;4.00;3.25;;;1.30;99.90;;;;;;5031722;28;20218;-73
2021/11/27 00:46:41;;;;;;;6.05;4.10;;;1.30;99.90;;;;;;5031123;28;20229;-73
2021/11/27 00:49:12;;;;;;;5.10;4.13;;;1.30;99.90;;;;;;5031647;28;20198;-73
2021/11/27 00:51:39;;;;;;;6.55;4.53;;;1.30;99.90;;;;;;5031023;28;20213;-73
2021/11/27 00:54:06;;;;;;;5.22;4.05;;;1.30;99.90;;;;;;5031156;28;20617;-73
2021/11/27 00:56:33;;;;;;;4.63;3.80;;;1.30;99.90;;;;;;5031223;28;20236;-73
2021/11/27 00:59:00;;;;;;;5.28;4.20;;;1.30;99.90;;;;;;5031240;28;20218;-73
2021/11/27 01:01:30;;;;;;;5.45;4.20;;;1.30;99.90;;;;;;5030952;28;20205;-73
2021/11/27 01:03:57;;;;;;;4.57;3.60;;;1.30;99.90;;;;;;5030898;28;20228;-73
2021/11/27 01:06:27;;;;;;;4.35;3.60;;;1.30;99.90;;;;;;5031361;28;20225;-73
2021/11/27 01:08:57;;;;;;;6.25;4.18;;;1.30;99.90;;;;;;5107466;22;20648;-70
2021/11/27 01:11:26;;;;;;;7.47;4.70;;;1.30;99.90;;;;;;5031773;28;20209;-70
2021/11/27 01:13:55;;;;;;;5.03;4.00;;;1.40;99.90;;;;;;5030702;28;20194;-70
2021/11/27 01:16:24;;;;;;;5.63;4.18;;;1.40;99.90;;;;;;5031772;28;20228;-70
2021/11/27 01:18:51;;;;;;;5.35;4.20;;;1.40;99.90;;;;;;5031763;28;20639;-70
2021/11/27 01:21:23;;;;;;;4.82;3.70;;;1.50;99.90;;;;;;5031099;28;20202;-70
2021/11/27 01:23:54;;;;;;;5.85;3.75;;;1.50;99.90;;;;;;5032070;28;20206;-70
2021/11/27 01:26:21;;;;;;;4.97;3.80;;;1.40;99.90;;;;;;5030881;28;20727;-70
2021/11/27 01:28:48;;;;;;;4.90;4.10;;;1.50;99.90;;;;;;5031751;28;20289;-70
2021/11/27 01:31:15;;;;;;;5.78;4.45;;;1.50;99.90;;;;;;5030761;28;20226;-70
2021/11/27 01:33:42;;;;;;;4.43;3.33;;;1.50;99.90;;;;;;5031958;28;20697;-70
2021/11/27 01:36:09;;;;;;;4.85;4.30;;;1.50;99.90;;;;;;5030921;28;20202;-70
2021/11/27 01:38:36;;;;;;;5.22;4.72;;;1.50;99.90;;;;;;5031420;28;20708;-70
2021/11/27 01:41:05;;;;;;;5.68;3.90;;;1.50;99.90;;;;;;5031288;28;20551;-70
2021/11/27 01:43:33;;;;;;;5.68;3.97;;;1.50;99.90;;;;;;5031466;28;20213;-70
2021/11/27 01:46:00;;;;;;;5.25;4.60;;;1.40;99.90;;;;;;5031496;28;20208;-70
2021/11/27 01:48:28;;;;;;;6.90;4.45;;;1.40;99.90;;;;;;5030768;28;20202;-70
2021/11/27 01:50:57;;;;;;;5.85;4.43;;;1.40;99.90;;;;;;5030965;28;20672;-70
2021/11/27 01:53:25;;;;;;;5.75;4.65;;;1.50;99.90;;;;;;5030894;28;20668;-71
2021/11/27 01:55:52;;;;;;;7.60;4.97;;;1.40;99.90;;;;;;5031573;28;20208;-70
2021/11/27 01:58:20;;;;;;;5.63;3.97;;;1.40;99.90;;;;;;5031018;28;20790;-70
2021/11/27 02:01:04;;;;;;;5.45;4.13;;;1.40;99.90;;;;;;5030997;28;20212;-70
2021/11/27 02:03:31;;;;;;;4.80;4.05;;;1.40;99.90;;;;;;5031114;28;20204;-70
2021/11/27 02:06:00;;;;;;;5.97;4.45;;;1.30;99.90;;;;;;5030976;28;20206;-70
2021/11/27 02:08:28;;;;;;;6.00;3.75;;;1.30;99.90;;;;;;5031108;28;20205;-70
2021/11/27 02:10:55;;;;;;;6.35;4.22;;;1.40;99.90;;;;;;5030740;28;20255;-70
2021/11/27 02:13:24;;;;;;;5.25;4.40;;;1.40;99.90;;;;;;5031343;28;20664;-70
2021/11/27 02:15:51;;;;;;;5.68;5.10;;;1.40;99.90;;;;;;5031149;28;20209;-70
2021/11/27 02:18:17;;;;;;;6.05;4.45;;;1.40;99.90;;;;;;5030296;28;20759;-70
2021/11/27 02:20:55;;;;;;;4.60;4.10;;;1.40;99.90;;;;;;5030886;28;20568;-70
2021/11/27 02:23:22;;;;;;;5.03;4.15;;;1.40;99.90;;;;;;5030450;28;20690;-70
2021/11/27 02:25:49;;;;;;;4.93;3.80;;;1.40;99.90;;;;;;5031030;28;20201;-70
2021/11/27 02:28:16;;;;;;;10.70;4.55;;;1.40;99.90;;;;;;5030194;28;20225;-70
2021/11/27 02:30:43;;;;;;;4.88;3.70;;;1.40;99.90;;;;;;5030598;28;20210;-70
2021/11/27 02:33:10;;;;;;;6.13;4.25;;;1.40;99.90;;;;;;5030203;28;20676;-70
2021/11/27 02:35:37;;;;;;;4.50;3.50;;;1.40;99.90;;;;;;5030239;28;20202;-70
2021/11/27 02:38:05;;;;;;;5.30;3.90;;;1.40;99.90;;;;;;5029832;28;20623;-70
2021/11/27 02:40:34;;;;;;;5.88;4.40;;;1.40;99.90;;;;;;5029669;28;20217;-70
2021/11/27 02:43:01;;;;;;;4.95;4.35;;;1.40;99.90;;;;;;5030331;28;20206;-70
2021/11/27 02:45:27;;;;;;;5.30;4.20;;;1.40;99.90;;;;;;5029877;28;20208;-70
2021/11/27 02:47:55;;;;;;;4.60;3.72;;;1.40;99.90;;;;;;5030365;28;20225;-70
2021/11/27 02:50:22;;;;;;;4.00;3.40;;;1.50;99.90;;;;;;5030106;28;20205;-70
2021/11/27 02:52:48;;;;;;;4.82;3.78;;;1.50;99.90;;;;;;5029746;28;20202;-70
2021/11/27 02:55:17;;;;;;;6.38;3.80;;;1.50;99.90;;;;;;5030145;28;20205;-70
2021/11/27 02:57:43;;;;;;;5.20;4.22;;;1.50;99.90;;;;;;5029989;28;20221;-70
2021/11/27 03:00:14;;;;;;;4.07;3.67;;;1.50;99.90;;;;;;5030076;28;20221;-70
2021/11/27 03:02:42;;;;;;;6.07;3.80;;;1.50;99.90;;;;;;5029457;28;20624;-70
2021/11/27 03:05:09;;;;;;;5.05;3.65;;;1.50;99.90;;;;;;5030531;28;20205;-70
2021/11/27 03:07:35;;;;;;;3.60;3.22;;;1.60;99.90;;;;;;5030064;28;20236;-70
2021/11/27 03:10:03;;;;;;;4.07;3.28;;;1.60;99.90;;;;;;5029741;28;20205;-70
2021/11/27 03:12:31;;;;;;;3.55;3.20;;;1.60;99.90;;;;;;5029657;28;20212;-70
2021/11/27 03:14:58;;;;;;;4.18;3.40;;;1.60;99.90;;;;;;5029957;28;20202;-70
2021/11/27 03:17:25;;;;;;;4.85;3.25;;;1.70;99.90;;;;;;5029861;28;20222;-70
2021/11/27 03:19:52;;;;;;;5.32;3.15;;;1.70;99.90;;;;;;5030003;28;20621;-70
2021/11/27 03:22:20;;;;;;;3.83;3.33;;;1.70;99.90;;;;;;5029340;28;20267;-70
2021/11/27 03:24:47;;;;;;;4.60;3.40;;;1.70;99.90;;;;;;5030195;28;20672;-70
2021/11/27 03:27:15;;;;;;;3.55;3.25;;;1.70;99.90;;;;;;5029342;28;20225;-70
2021/11/27 03:29:44;;;;;;;4.28;3.20;;;1.80;99.90;;;;;;5030061;28;20704;-68
2021/11/27 03:32:13;;;;;;;4.63;3.45;;;1.80;99.90;;;;;;5028768;28;20197;-70
2021/11/27 03:34:40;;;;;;;3.78;3.30;;;1.80;99.90;;;;;;5029955;28;20672;-70
2021/11/27 03:37:07;;;;;;;4.68;4.10;;;1.90;99.90;;;;;;5029697;28;20578;-70
2021/11/27 03:39:34;;;;;;;3.70;3.35;;;1.90;99.90;;;;;;5029608;28;20225;-70
2021/11/27 03:42:02;;;;;;;7.72;3.40;;;1.80;99.90;;;;;;5029641;28;20205;-70
2021/11/27 03:44:28;;;;;;;4.85;3.20;;;1.80;99.90;;;;;;5029879;28;20206;-70
2021/11/27 03:46:59;;;;;;;4.63;3.63;;;1.70;99.90;;;;;;5029909;28;20226;-70
2021/11/27 03:49:26;;;;;;;3.63;3.17;;;1.70;99.90;;;;;;5029452;28;20198;-71
2021/11/27 03:51:53;;;;;;;3.67;3.20;;;1.60;99.90;;;;;;5033226;28;20202;-70
2021/11/27 03:54:20;;;;;;;5.28;3.75;;;1.60;99.90;;;;;;5033313;28;20213;-70
2021/11/27 03:56:47;;;;;;;4.45;3.75;;;1.60;99.90;;;;;;5033034;28;20707;-70
2021/11/27 03:59:15;;;;;;;4.57;4.05;;;1.60;99.90;;;;;;5033063;28;20723;-70
2021/11/27 04:01:42;;;;;;;3.60;2.95;;;1.60;99.90;;;;;;5032541;28;20263;-70
2021/11/27 04:04:10;;;;;;;4.30;2.97;;;1.70;99.90;;;;;;5033251;28;20585;-70
2021/11/27 04:06:38;;;;;;;3.80;3.35;;;1.60;99.90;;;;;;5032742;28;20299;-70
2021/11/27 04:09:06;;;;;;;4.05;2.95;;;1.60;99.90;;;;;;5033065;28;20205;-70
2021/11/27 04:11:33;;;;;;;3.17;2.85;;;1.60;99.90;;;;;;5032634;28;20279;-70
2021/11/27 04:13:59;;;;;;;3.17;2.63;;;1.60;99.90;;;;;;5032805;28;20209;-70
2021/11/27 04:16:26;;;;;;;3.08;2.72;;;1.60;99.90;;;;;;5032752;28;20892;-70
2021/11/27 04:18:53;;;;;;;4.05;2.95;;;1.60;99.90;;;;;;5032987;28;20213;-70
2021/11/27 04:21:22;;;;;;;4.90;3.13;;;1.60;99.90;;;;;;5032424;28;20206;-70
2021/11/27 04:23:49;;;;;;;4.22;2.50;;;1.60;99.90;;;;;;5032688;28;20198;-70
2021/11/27 04:26:17;;;;;;;2.58;2.22;;;1.70;99.90;;;;;;5032602;28;20205;-70
2021/11/27 04:28:44;;;;;;;2.45;2.25;;;1.70;99.90;;;;;;5032922;28;20201;-70
2021/11/27 04:31:11;;;;;;;2.72;2.20;;;1.70;99.90;;;;;;5031752;28;20806;-70
2021/11/27 04:33:38;;;;;;;2.28;1.67;;;1.70;99.90;;;;;;5032913;28;20229;-70
2021/11/27 04:36:08;;;;;;;3.03;2.22;;;1.70;99.90;;;;;;5032258;28;20628;-70
2021/11/27 04:38:36;;;;;;;2.75;1.90;;;1.70;99.90;;;;;;5032458;28;20210;-70
2021/11/27 04:41:03;;;;;;;2.47;2.28;;;1.80;99.90;;;;;;5031823;28;20229;-70
2021/11/27 04:43:30;;;;;;;2.53;1.95;;;1.80;99.90;;;;;;5032402;28;20205;-70
2021/11/27 04:45:57;;;;;;;4.75;2.00;;;1.80;99.90;;;;;;5032633;28;20202;-71
2021/11/27 04:48:23;;;;;;;2.60;2.22;;;1.80;99.90;;;;;;5031730;28;20225;-70
2021/11/27 04:50:50;;;;;;;2.20;2.00;;;1.80;99.90;;;;;;5032448;28;20548;-70
2021/11/27 04:53:17;;;;;;;2.65;1.80;;;1.80;99.90;;;;;;5031793;28;20202;-70
2021/11/27 04:55:45;;;;;;;2.55;2.15;;;1.80;99.90;;;;;;5032479;28;20205;-70
2021/11/27 04:58:12;;;;;;;2.90;1.83;;;1.80;99.90;;;;;;5032330;28;20225;-70
2021/11/27 05:00:41;;;;;;;2.70;1.73;;;1.80;99.90;;;;;;5031760;28;20218;-70
2021/11/27 05:03:08;;;;;;;2.58;1.88;;;1.70;99.90;;;;;;5031380;28;20206;-70
2021/11/27 05:05:35;;;;;;;4.38;1.80;;;1.70;99.90;;;;;;5031745;28;20212;-70
2021/11/27 05:08:02;;;;;;;1.65;1.55;;;1.80;99.90;;;;;;5032402;28;20229;-70
2021/11/27 05:10:28;;;;;;;2.63;2.22;;;1.80;99.90;;;;;;5031473;28;20229;-70
2021/11/27 05:12:57;;;;;;;2.92;2.25;;;1.80;99.90;;;;;;5031717;28;20202;-70
2021/11/27 05:15:24;;;;;;;2.83;1.98;;;1.80;99.90;;;;;;5031984;28;20202;-70
2021/11/27 05:17:51;;;;;;;2.05;1.52;;;1.70;99.90;;;;;;5031530;28;20221;-71
2021/11/27 05:20:18;;;;;;;3.17;2.30;;;1.70;99.90;;;;;;5031645;28;20225;-70
2021/11/27 05:22:44;;;;;;;1.65;1.50;;;1.70;99.90;;;;;;5031069;28;20673;-71
2021/11/27 05:25:11;;;;;;;2.80;1.75;;;1.70;99.90;;;;;;5031756;28;20204;-70
2021/11/27 05:27:39;;;;;;;2.17;1.60;;;1.80;99.90;;;;;;5031710;28;20245;-70
2021/11/27 05:30:10;;;;;;;3.08;1.65;;;1.70;99.90;;;;;;5031612;28;20232;-70
2021/11/27 05:32:51;;;;;;;1.55;1.38;;;1.80;99.90;;;;;;5031213;28;20293;-71
2021/11/27 05:35:18;;;;;;;2.60;1.70;;;1.80;99.90;;;;;;5031362;28;20740;-71
2021/11/27 05:37:46;;;;;;;1.60;1.40;;;1.80;99.90;;;;;;5031569;28;20225;-71
2021/11/27 05:40:14;;;;;;;1.92;1.65;;;1.80;99.90;;;;;;5031085;28;20221;-71
2021/11/27 05:42:42;;;;;;;3.00;1.73;;;1.70;99.90;;;;;;5031376;28;20206;-70
2021/11/27 05:45:11;;;;;;;2.10;1.52;;;1.70;99.90;;;;;;5031677;28;20206;-71
2021/11/27 05:47:39;;;;;;;1.63;1.52;;;1.80;99.90;;;;;;5031029;28;20712;-70
2021/11/27 05:50:06;;;;;;;2.05;1.85;;;1.80;99.90;;;;;;5031498;28;20193;-70
2021/11/27 05:52:33;;;;;;;2.20;2.00;;;1.80;99.90;;;;;;5030516;28;20213;-71
2021/11/27 05:55:00;;;;;;;2.55;1.70;;;1.80;99.90;;;;;;5031650;28;20208;-70
2021/11/27 05:57:26;;;;;;;3.17;2.13;;;1.80;99.90;;;;;;5031050;28;20746;-71
2021/11/27 05:59:53;;;;;;;3.00;1.90;;;1.80;99.90;;;;;;5031396;28;20218;-71
2021/11/27 06:02:22;;;;;;;3.22;1.92;;;1.90;99.90;;;;;;5030746;28;20198;-70
2021/11/27 06:04:50;;;;;;;2.00;1.80;;;1.90;99.90;;;;;;5031178;28;20340;-70
2021/11/27 06:07:16;;;;;;;1.75;1.40;;;1.90;99.90;;;;;;5030985;28;20226;-71
2021/11/27 06:09:43;;;;;;;2.92;2.30;;;1.90;99.90;;;;;;5030912;28;20567;-71
2021/11/27 06:12:10;;;;;;;2.00;1.77;;;1.80;99.90;;;;;;5030706;28;20198;-71
2021/11/27 06:14:37;;;;;;;2.97;2.05;;;1.90;99.90;;;;;;5030782;28;20592;-71
2021/11/27 06:17:04;;;;;;;2.42;2.10;;;1.90;99.90;;;;;;5031122;28;20225;-71
2021/11/27 06:19:32;;;;;;;3.10;2.50;;;1.90;99.90;;;;;;5030774;28;20202;-71
2021/11/27 06:21:59;;;;;;;1.95;1.70;;;1.80;99.90;;;;;;5030300;28;20691;-71
2021/11/27 06:24:26;;;;;;;2.53;2.33;;;1.80;99.90;;;;;;5030804;28;20217;-71
2021/11/27 06:26:52;;;;;;;2.97;2.20;;;1.80;99.90;;;;;;5030665;28;20587;-71
2021/11/27 06:29:19;;;;;;;2.40;1.90;;;1.80;99.90;;;;;;5030910;28;20198;-71
2021/11/27 06:31:46;;;;;;;1.83;1.65;;;1.80;99.90;;;;;;5030525;28;20198;-71
2021/11/27 06:34:14;;;;;;;3.45;1.85;;;1.90;99.90;;;;;;5030593;28;20210;-71
2021/11/27 06:36:42;;;;;;;2.80;2.15;;;1.80;99.90;;;;;;5030728;28;20734;-71
2021/11/27 06:39:09;;;;;;;2.50;1.83;;;1.80;99.90;;;;;;5030682;28;20206;-71
2021/11/27 06:41:36;;;;;;;3.10;2.40;;;1.80;99.90;;;;;;5029332;28;20461;-72
2021/11/27 06:44:02;;;;;;;2.08;1.88;;;1.80;99.90;;;;;;5030308;28;20673;-72
2021/11/27 06:46:29;;;;;;;3.20;1.98;;;1.80;99.90;;;;;;5030375;28;20217;-72
2021/11/27 06:48:56;;;;;;;2.53;1.95;;;1.70;99.90;;;;;;5030650;28;20213;-72
2021/11/27 06:51:22;;;;;;;2.53;2.13;;;1.80;99.90;;;;;;5029762;28;20221;-71
2021/11/27 06:53:50;;;;;;;3.13;1.98;;;1.80;99.90;;;;;;5030892;28;20210;-71
2021/11/27 06:56:17;;;;;;;2.30;2.05;;;1.70;99.90;;;;;;5029932;28;20201;-71
2021/11/27 06:58:44;;;;;;;2.03;1.50;;;1.70;99.90;;;;;;5030466;28;20213;-71
2021/11/27 07:01:10;;;;;;;2.60;1.77;;;1.70;99.90;;;;;;5029823;28;20217;-71
2021/11/27 07:03:37;;;;;;;2.13;1.92;;;1.80;99.90;;;;;;5030256;28;20704;-71
2021/11/27 07:06:04;;;;;;;2.35;2.03;;;1.80;99.90;;;;;;5030445;28;20574;-71
2021/11/27 07:08:31;;;;;;;2.15;1.80;;;1.70;99.90;;;;;;5029438;28;20205;-71
2021/11/27 07:10:59;;;;;;;2.05;1.83;;;1.80;99.90;;;;;;5043293;22;20727;-69
2021/11/27 07:13:25;;;;;;;2.83;2.00;;;1.80;99.90;;;;;;5029558;28;20201;-69
2021/11/27 07:15:52;;;;;;;1.92;1.70;;;1.80;99.90;;;;;;5030111;28;20204;-69
2021/11/27 07:18:19;;;;;;;1.73;1.63;;;1.70;99.90;;;;;;5029771;28;20226;-70
2021/11/27 07:20:45;;;;;;;2.70;2.03;;;1.80;99.90;;;;;;5029767;28;20232;-68
2021/11/27 07:23:12;;;;;;;2.28;1.80;;;1.80;99.90;;;;;;5029764;28;20618;-68
2021/11/27 07:25:39;;;;;;;1.95;1.85;;;1.70;99.90;;;;;;5031457;28;20418;-68
2021/11/27 07:28:09;;;;;;;2.08;1.80;;;1.70;99.90;;;;;;5033873;28;20224;-68
2021/11/27 07:30:36;;;;;;;2.50;2.22;;;1.70;99.90;;;;;;5033562;28;20285;-68
2021/11/27 07:33:03;;;;;;;2.60;2.30;;;1.80;99.90;;;;;;5033042;28;20203;-68
2021/11/27 07:35:30;;;;;;;1.95;1.75;;;1.80;99.90;;;;;;5032406;28;20664;-68
2021/11/27 07:37:56;;;;;;;3.08;2.00;;;1.90;99.90;;;;;;5031346;28;20732;-68
2021/11/27 07:40:24;;;;;;;2.55;2.13;;;1.90;99.90;;;;;;5032197;28;20213;-68
2021/11/27 07:42:52;;;;;;;2.63;1.75;;;2.00;99.90;;;;;;5029261;28;20205;-69
2021/11/27 07:45:21;;;;;;;2.28;2.05;;;1.90;99.90;;;;;;5031780;28;20285;-68
2021/11/27 07:47:48;;;;;;;2.00;1.80;;;1.90;99.90;;;;;;5032295;28;20563;-68
2021/11/27 07:50:15;;;;;;;2.20;1.90;;;2.00;99.90;;;;;;5031709;28;20591;-68
2021/11/27 07:52:42;;;;;;;2.90;2.03;;;2.10;99.90;;;;;;5031834;28;20201;-69
2021/11/27 07:55:10;;;;;;;2.10;1.95;;;2.20;99.90;;;;;;5025472;28;20572;-68
2021/11/27 07:57:37;;;;;;;2.70;2.40;;;2.30;99.90;;;;;;5031092;28;20217;-71
2021/11/27 08:00:07;;;;;;;1.98;1.52;;;2.80;99.90;;;;;;5032134;28;20244;-69
2021/11/27 08:02:37;;;;;;;2.00;1.80;;;3.60;99.90;;;;;;5028249;28;20317;-68
2021/11/27 08:05:05;;;;;;;1.67;1.52;;;4.60;99.90;;;;;;5031353;28;20198;-68
2021/11/27 08:07:35;;;;;;;2.17;1.63;;;5.50;99.90;;;;;;5025641;28;20251;-68
2021/11/27 08:10:05;;;;;;;2.25;1.52;;;6.70;99.90;;;;;;5030317;28;20622;-68
2021/11/27 08:12:35;;;;;;;2.22;1.70;;;7.20;99.90;;;;;;5030681;28;20198;-68
2021/11/27 08:15:03;;;;;;;1.75;1.60;;;7.80;99.90;;;;;;5031092;28;20198;-67
2021/11/27 08:17:30;;;;;;;1.55;1.45;;;7.60;99.90;;;;;;5030350;28;20707;-68
2021/11/27 08:19:59;;;;;;;2.28;1.70;;;7.00;99.90;;;;;;5031133;28;20202;-67
2021/11/27 08:22:27;;;;;;;1.50;1.40;;;6.80;99.90;;;;;;5029762;28;20279;-69
2021/11/27 08:24:55;;;;;;;1.63;1.52;;;7.20;99.90;;;;;;5028907;28;20198;-68
2021/11/27 08:27:23;;;;;;;1.80;1.65;;;7.90;99.90;;;;;;5031087;28;20735;-70
2021/11/27 08:29:50;;;;;;;2.55;1.45;;;8.90;99.90;;;;;;5027580;28;20835;-68
2021/11/27 08:32:18;;;;;;;1.80;1.45;;;9.30;99.90;;;;;;5026522;28;20194;-69
2021/11/27 08:34:45;;;;;;;2.00;1.80;;;8.80;99.90;;;;;;5021250;28;20213;-69
2021/11/27 08:37:14;;;;;;;1.83;1.63;;;8.50;99.90;;;;;;5028484;28;20224;-69
2021/11/27 08:39:41;;;;;;;2.78;1.70;;;8.00;99.90;;;;;;5029861;28;20208;-69
2021/11/27 08:42:08;;;;;;;1.65;1.55;;;7.10;99.90;;;;;;5029191;28;20309;-68
2021/11/27 08:44:35;;;;;;;1.60;1.50;;;6.30;99.90;;;;;;5030943;28;20198;-69
2021/11/27 08:47:02;;;;;;;2.40;1.67;;;6.00;99.90;;;;;;5030046;28;20217;-69
2021/11/27 08:49:29;;;;;;;1.52;1.20;;;5.60;99.90;;;;;;5030177;28;20197;-69
2021/11/27 08:51:56;;;;;;;1.35;1.15;;;5.40;99.90;;;;;;5029710;28;20220;-68
2021/11/27 08:54:24;;;;;;;1.40;1.20;;;5.30;99.90;;;;;;5030816;28;20213;-68
2021/11/27 08:56:52;;;;;;;2.15;1.13;;;5.00;99.90;;;;;;5031322;28;20248;-67
2021/11/27 08:59:18;;;;;;;1.98;1.30;;;4.90;99.90;;;;;;5030971;28;20193;-68
2021/11/27 09:01:46;;;;;;;1.70;1.40;;;5.00;99.90;;;;;;5029818;28;20228;-68
2021/11/27 09:04:13;;;;;;;4.05;3.03;;;5.00;99.90;;;;;;5030783;28;20623;-68
2021/11/27 09:06:40;;;;;;;3.70;1.30;;;4.80;99.90;;;;;;5031409;28;20295;-68
2021/11/27 09:09:07;;;;;;;1.55;1.35;;;4.70;99.90;;;;;;5028536;28;20198;-69
2021/11/27 09:11:35;;;;;;;1.55;1.45;;;4.50;99.90;;;;;;5030652;28;20198;-69
2021/11/27 09:14:03;;;;;;;2.35;1.90;;;4.40;99.90;;;;;;5027634;28;20206;-69
2021/11/27 09:16:30;;;;;;;2.15;1.60;;;4.30;99.90;;;;;;5028494;28;20222;-69
2021/11/27 09:18:57;;;;;;;2.25;1.83;;;4.30;99.90;;;;;;5021225;28;20821;-69
2021/11/27 09:21:24;;;;;;;1.70;1.30;;;4.50;99.90;;;;;;5024172;28;20602;-68
2021/11/27 09:23:51;;;;;;;2.33;1.70;;;4.70;99.90;;;;;;5025178;28;20198;-68
2021/11/27 09:26:18;;;;;;;2.00;1.80;;;4.80;99.90;;;;;;5029729;28;20212;-69
2021/11/27 09:28:46;;;;;;;1.77;1.55;;;4.90;99.90;;;;;;5030523;28;20285;-69
2021/11/27 09:31:13;;;;;;;2.28;1.50;;;5.10;99.90;;;;;;5028903;28;20198;-68
2021/11/27 09:33:40;;;;;;;2.17;1.30;;;5.10;99.90;;;;;;5029722;28;20221;-69
2021/11/27 09:36:09;;;;;;;3.08;1.48;;;5.00;99.90;;;;;;5029387;28;20202;-68
2021/11/27 09:38:38;;;;;;;2.50;1.63;;;4.80;99.90;;;;;;5028635;28;20205;-69
2021/11/27 09:41:17;;;;;;;1.52;1.20;;;4.70;99.90;;;;;;5026266;28;20468;-69
2021/11/27 09:43:47;;;;;;;3.15;1.35;;;4.70;99.90;;;;;;5026058;28;20193;-68
2021/11/27 09:46:16;;;;;;;1.70;1.35;;;4.50;99.90;;;;;;5028105;28;20204;-69
2021/11/27 09:48:46;;;;;;;3.15;1.40;;;4.60;99.90;;;;;;5029843;28;20198;-67
2021/11/27 09:51:14;;;;;;;1.73;1.40;;;4.60;99.90;;;;;;5029417;28;20201;-69
2021/11/27 09:53:41;;;;;;;2.13;1.35;;;5.30;99.90;;;;;;5029713;28;20680;-68
2021/11/27 09:56:09;;;;;;;1.25;1.13;;;6.20;99.90;;;;;;5032281;28;20455;-68
2021/11/27 09:58:36;;;;;;;1.90;1.25;;;6.50;99.90;;;;;;5032445;28;20201;-69
2021/11/27 10:01:06;;;;;;;1.38;1.15;;;6.70;99.90;;;;;;5028305;28;20712;-69
2021/11/27 10:03:34;;;;;;;2.85;1.45;;;6.80;99.90;;;;;;5030984;28;20198;-69
2021/11/27 10:06:01;;;;;;;2.35;1.35;;;7.30;99.90;;;;;;5031141;28;20198;-69
2021/11/27 10:08:28;;;;;;;1.83;1.10;;;8.70;99.90;;;;;;5026760;28;20217;-68
2021/11/27 10:10:55;;;;;;;1.55;1.20;;;9.10;99.90;;;;;;5014496;28;20202;-68
2021/11/27 10:13:23;;;;;;;1.25;1.10;;;9.50;99.90;;;;;;5006548;28;20660;-69
2021/11/27 10:15:52;;;;;;;1.95;1.10;;;9.50;99.90;;;;;;5026281;28;20193;-68
2021/11/27 10:18:23;;;;;;;2.20;1.17;;;9.30;99.90;;;;;;5028730;28;20221;-68
2021/11/27 10:21:14;;;;;;;1.60;1.27;;;9.20;99.90;;;;;;5030838;28;20715;-68
2021/11/27 10:23:42;;;;;;;1.83;1.35;;;9.50;99.90;;;;;;5029929;28;20205;-68
2021/11/27 10:26:31;;;;;;;1.60;1.20;;;10.20;99.90;;;;;;5030744;28;20289;-68
2021/11/27 10:29:13;;;;;;;3.03;1.52;;;11.70;99.90;;;;;;5030118;28;20630;-68
2021/11/27 10:31:40;;;;;;;1.42;1.23;;;12.60;99.90;;;;;;5029387;28;20198;-69
2021/11/27 10:34:08;;;;;;;2.03;1.50;;;12.50;99.90;;;;;;5028494;28;20202;-68
2021/11/27 10:36:35;;;;;;;3.28;1.50;;;11.90;99.90;;;;;;5029437;28;20766;-67
2021/11/27 10:39:05;;;;;;;2.35;1.70;;;11.00;99.90;;;;;;5029608;28;20205;-69
2021/11/27 10:41:36;;;;;;;2.22;1.70;;;10.10;99.90;;;;;;5027429;28;20233;-69
2021/11/27 10:44:06;;;;;;;2.28;1.77;;;9.20;99.90;;;;;;5030308;28;20744;-70
2021/11/27 10:46:36;;;;;;;2.50;1.40;;;8.70;99.90;;;;;;5030250;28;20739;-69
2021/11/27 10:49:04;;;;;;;2.03;1.30;;;8.00;99.90;;;;;;5030492;28;20201;-69
2021/11/27 10:51:32;;;;;;;5.00;1.70;;;7.50;99.90;;;;;;5029992;28;20205;-68
2021/11/27 10:54:02;;;;;;;2.65;1.50;;;7.20;99.90;;;;;;5029822;28;20205;-69
2021/11/27 10:56:43;;;;;;;2.65;1.63;;;7.00;99.90;;;;;;5030374;28;20218;-69
2021/11/27 10:59:11;;;;;;;2.40;1.65;;;6.50;99.90;;;;;;5029151;28;20205;-69
2021/11/27 11:02:03;;;;;;;1.80;1.63;;;5.90;99.90;;;;;;5029877;28;20233;-69
2021/11/27 11:04:30;;;;;;;2.65;1.52;;;5.60;99.90;;;;;;5030291;28;20202;-69
2021/11/27 11:07:20;;;;;;;2.90;1.70;;;5.40;99.90;;;;;;5030109;28;20233;-68
2021/11/27 11:10:06;;;;;;;2.38;1.30;;;5.40;99.90;;;;;;5029883;28;20495;-70
2021/11/27 11:12:38;;;;;;;2.08;1.40;;;5.40;99.90;;;;;;5029878;28;20198;-69
2021/11/27 11:15:21;;;;;;;3.20;1.88;;;5.30;99.90;;;;;;5030329;28;20205;-69
2021/11/27 11:17:49;;;;;;;1.92;1.50;;;5.20;99.90;;;;;;5029759;28;20703;-69
2021/11/27 11:20:22;;;;;;;2.92;2.70;;;5.00;99.90;;;;;;5030237;28;20293;-69
2021/11/27 11:23:09;;;;;;;2.17;1.30;;;5.00;99.90;;;;;;5029247;28;20240;-69
2021/11/27 11:25:40;;;;;;;1.80;1.40;;;4.90;99.90;;;;;;5030274;28;20221;-68
2021/11/27 11:28:15;;;;;;;3.15;1.67;;;4.80;99.90;;;;;;5029750;28;20222;-70
2021/11/27 11:30:45;;;;;;;2.92;1.70;;;4.70;99.90;;;;;;5027936;28;20197;-68
2021/11/27 11:33:13;;;;;;;2.08;1.88;;;4.60;99.90;;;;;;5030130;28;20292;-69
2021/11/27 11:35:40;;;;;;;2.28;2.00;;;4.60;99.90;;;;;;5030261;28;20204;-69
2021/11/27 11:38:11;;;;;;;2.05;1.50;;;4.50;99.90;;;;;;5030364;28;20312;-69
2021/11/27 11:40:38;;;;;;;2.45;1.75;;;4.50;99.90;;;;;;5027129;28;20623;-70
2021/11/27 11:43:05;;;;;;;3.47;1.85;;;4.40;99.90;;;;;;5029103;28;20238;-70
2021/11/27 11:45:32;;;;;;;2.55;1.55;;;4.50;99.90;;;;;;5029909;28;20206;-69
2021/11/27 11:47:59;;;;;;;3.88;1.77;;;4.80;99.90;;;;;;5029169;28;20222;-70
2021/11/27 11:50:28;;;;;;;1.27;1.17;;;5.20;99.90;;;;;;5030194;28;20256;-68
2021/11/27 11:53:07;;;;;;;2.00;1.80;;;5.50;99.90;;;;;;5028963;28;20594;-70
2021/11/27 11:55:38;;;;;;;3.95;1.83;;;5.90;99.90;;;;;;5030622;28;20209;-69
2021/11/27 11:58:05;;;;;;;1.80;1.70;;;5.70;99.90;;;;;;5029747;28;20257;-70
2021/11/27 12:00:33;;;;;;;1.80;1.45;;;5.50;99.90;;;;;;5029660;28;20210;-70
2021/11/27 12:03:05;;;;;;;1.95;1.75;;;5.40;99.90;;;;;;5026250;28;20249;-70
2021/11/27 12:05:34;;;;;;;1.67;1.45;;;5.30;99.90;;;;;;5029265;28;20669;-70
2021/11/27 12:08:01;;;;;;;2.50;1.85;;;5.20;99.90;;;;;;5027898;28;20775;-70
2021/11/27 12:10:29;;;;;;;2.30;1.77;;;5.20;99.90;;;;;;5029898;28;20210;-70
2021/11/27 12:13:28;;;;;;;2.00;1.80;;;5.10;99.90;;;;;;5032113;28;20197;-70
2021/11/27 12:16:10;;;;;;;1.52;1.42;;;5.00;99.90;;;;;;5033181;28;20364;-70
2021/11/27 12:18:55;;;;;;;1.55;1.30;;;5.00;99.90;;;;;;5032821;28;20241;-70
2021/11/27 12:21:22;;;;;;;2.47;1.70;;;5.00;99.90;;;;;;5032661;28;20206;-70
2021/11/27 12:23:51;;;;;;;4.32;1.60;;;4.90;99.90;;;;;;5031382;28;20209;-70
2021/11/27 12:26:21;;;;;;;2.47;1.50;;;4.80;99.90;;;;;;5032353;28;20329;-70
2021/11/27 12:29:12;;;;;;;1.90;1.30;;;4.90;99.90;;;;;;5033101;28;20209;-70
2021/11/27 12:31:42;;;;;;;1.65;1.42;;;4.90;99.90;;;;;;5031823;28;20226;-69
2021/11/27 12:34:09;;;;;;;2.85;2.05;;;5.00;99.90;;;;;;5032723;28;20574;-69
2021/11/27 12:36:48;;;;;;;2.38;1.30;;;5.00;99.90;;;;;;5032391;28;20513;-69
2021/11/27 12:39:33;;;;;;;1.70;1.50;;;5.10;99.90;;;;;;5032376;28;20417;-70
2021/11/27 12:42:19;;;;;;;2.13;1.33;;;5.40;99.90;;;;;;5032387;28;20221;-69
2021/11/27 12:44:49;;;;;;;1.88;1.10;;;5.60;99.90;;;;;;5031899;28;20293;-69
2021/11/27 12:47:37;;;;;;;1.52;1.42;;;5.70;99.90;;;;;;5032673;28;20228;-70
2021/11/27 12:50:21;;;;;;;1.35;1.25;;;5.60;99.90;;;;;;5032147;28;20206;-69
2021/11/27 12:52:48;;;;;;;2.30;1.35;;;5.50;99.90;;;;;;5031844;28;20661;-69
2021/11/27 12:55:35;;;;;;;1.25;1.08;;;5.30;99.90;;;;;;5032212;28;20209;-69
2021/11/27 12:58:29;;;;;;;2.85;1.60;;;5.10;99.90;;;;;;5032167;28;20303;-69
2021/11/27 13:00:56;;;;;;;2.10;1.30;;;5.00;99.90;;;;;;5032034;28;20205;-70
2021/11/27 13:03:22;;;;;;;1.77;1.35;;;5.00;99.90;;;;;;5031196;28;20213;-69
2021/11/27 13:05:49;;;;;;;4.72;1.98;;;5.00;99.90;;;;;;5032197;28;20672;-69